This is the latest recevied weather packets stored in our database for station/object OM2RC-6. If no packets are shown the sender has not sent any weather packets the latest 10 day(s).
| Time | Temp. | Humidity | Pressure | Rain* | Wind** | Luminosity | Snow |
|---|---|---|---|---|---|---|---|
| 1777383050 | 17.78° C | 38% | 1020.5 hPa | - | - | - | - |
| 1777382749 | 17.78° C | 37% | 1020.5 hPa | - | - | - | - |
| 1777382448 | 17.78° C | 36% | 1020.6 hPa | - | - | - | - |
| 1777382146 | 18.33° C | 35% | 1020.7 hPa | - | - | - | - |
| 1777381845 | 18.89° C | 34% | 1020.7 hPa | - | - | - | - |
| 1777381544 | 18.89° C | 34% | 1020.7 hPa | - | - | - | - |
| 1777381243 | 19.44° C | 33% | 1020.8 hPa | - | - | - | - |
| 1777380642 | 17.78° C | 36% | 1021 hPa | - | - | - | - |
| 1777380040 | 17.78° C | 33% | 1020.9 hPa | - | - | - | - |
| 1777379739 | 19.44° C | 31% | 1020.8 hPa | - | - | - | - |
| 1777378836 | 20.56° C | 30% | 1020.9 hPa | - | - | - | - |
| 1777378535 | 19.44° C | 32% | 1021 hPa | - | - | - | - |
| 1777378234 | 18.89° C | 32% | 1021 hPa | - | - | - | - |
| 1777377934 | 20.56° C | 30% | 1021 hPa | - | - | - | - |
| 1777377633 | 20.56° C | 30% | 1021 hPa | - | - | - | - |
| 1777377332 | 21.67° C | 29% | 1021.1 hPa | - | - | - | - |
| 1777377031 | 20° C | 30% | 1021.2 hPa | - | - | - | - |
| 1777376730 | 18.89° C | 31% | 1021.1 hPa | - | - | - | - |
| 1777376126 | 22.78° C | 29% | 1021.1 hPa | - | - | - | - |
| 1777375223 | 18.89° C | 32% | 1021.3 hPa | - | - | - | - |
| 1777374620 | 20° C | 30% | 1021.2 hPa | - | - | - | - |
| 1777374319 | 20° C | 30% | 1021.2 hPa | - | - | - | - |
| 1777373717 | 21.67° C | 30% | 1021.4 hPa | - | - | - | - |
| 1777372513 | 18.89° C | 31% | 1021.4 hPa | - | - | - | - |
| 1777372211 | 18.89° C | 33% | 1021.4 hPa | - | - | - | - |
* Rain since midnight (hover to see other rain measurements)
** Current wind speed in m/s (hover to see current wind gust speed)